Weather at Matilla De Los Caños Airport

Public forecast

Using degrees Celsius for public forecast. Weather courtesy of forecast.io.

Closest aviation weather report (METAR) to Matilla De Los Caños Airport

Closest report is Valladolid Airport, 11.0 nm (20.4 km) NNE. Retrieved 2021/09/20 19:00 UTC (4 minutes ago):

LEVD 201900Z 06010KT CAVOK 10/08 Q1025

Closest aviation forecast (TAF) to Matilla De Los Caños Airport

Closest forecast is Valladolid Airport, 11.0 nm (20.4 km) NNE. Retrieved 2021/09/20 15:27 UTC (4 hours ago):

TAF LEVD 201400Z 2015/2115 05010KT 9999 SCT040 TX21/2115Z TN07/2106Z PROB30 TEMPO 2102/2108 BKN012 PROB40 TEMPO 2108/2115 05018G28KT